sensor_id;sensor_type;location;lat;lon;timestamp;P1;durP1;ratioP1;P2;durP2;ratioP2
71290;SDS011;59073;51.994;4.448;2023-12-22T00:01:22;6.83;;;4.23;;
71290;SDS011;59073;51.994;4.448;2023-12-22T00:03:48;7.16;;;4.41;;
71290;SDS011;59073;51.994;4.448;2023-12-22T00:06:15;6.72;;;4.19;;
71290;SDS011;59073;51.994;4.448;2023-12-22T00:08:41;8.20;;;5.00;;
71290;SDS011;59073;51.994;4.448;2023-12-22T00:11:07;7.88;;;4.88;;
71290;SDS011;59073;51.994;4.448;2023-12-22T00:13:33;7.81;;;4.85;;
71290;SDS011;59073;51.994;4.448;2023-12-22T00:15:59;7.73;;;4.77;;
71290;SDS011;59073;51.994;4.448;2023-12-22T00:18:25;7.44;;;4.64;;
71290;SDS011;59073;51.994;4.448;2023-12-22T00:20:51;6.37;;;3.99;;
71290;SDS011;59073;51.994;4.448;2023-12-22T00:23:16;6.50;;;4.10;;
71290;SDS011;59073;51.994;4.448;2023-12-22T00:25:42;7.26;;;4.58;;
71290;SDS011;59073;51.994;4.448;2023-12-22T00:28:07;7.14;;;4.53;;
71290;SDS011;59073;51.994;4.448;2023-12-22T00:30:33;6.19;;;3.92;;
71290;SDS011;59073;51.994;4.448;2023-12-22T00:32:59;6.30;;;3.96;;
71290;SDS011;59073;51.994;4.448;2023-12-22T00:35:24;7.00;;;4.37;;
71290;SDS011;59073;51.994;4.448;2023-12-22T00:37:49;5.60;;;3.56;;
71290;SDS011;59073;51.994;4.448;2023-12-22T00:40:15;6.74;;;4.28;;
71290;SDS011;59073;51.994;4.448;2023-12-22T00:42:40;6.65;;;4.13;;
71290;SDS011;59073;51.994;4.448;2023-12-22T00:45:06;7.83;;;4.81;;
71290;SDS011;59073;51.994;4.448;2023-12-22T00:47:32;7.59;;;4.62;;
71290;SDS011;59073;51.994;4.448;2023-12-22T00:50:00;6.88;;;4.19;;
71290;SDS011;59073;51.994;4.448;2023-12-22T00:52:26;6.90;;;4.21;;
71290;SDS011;59073;51.994;4.448;2023-12-22T00:54:52;7.83;;;4.73;;
71290;SDS011;59073;51.994;4.448;2023-12-22T00:57:17;8.56;;;5.13;;
71290;SDS011;59073;51.994;4.448;2023-12-22T00:59:43;7.68;;;4.59;;
71290;SDS011;59073;51.994;4.448;2023-12-22T01:02:16;7.83;;;4.68;;
71290;SDS011;59073;51.994;4.448;2023-12-22T01:04:43;7.97;;;4.83;;
71290;SDS011;59073;51.994;4.448;2023-12-22T01:07:09;6.60;;;4.07;;
71290;SDS011;59073;51.994;4.448;2023-12-22T01:09:35;6.30;;;3.94;;
71290;SDS011;59073;51.994;4.448;2023-12-22T01:12:03;6.44;;;4.01;;
71290;SDS011;59073;51.994;4.448;2023-12-22T01:14:29;6.11;;;3.85;;
71290;SDS011;59073;51.994;4.448;2023-12-22T01:16:55;5.06;;;3.18;;
71290;SDS011;59073;51.994;4.448;2023-12-22T01:19:20;6.48;;;4.05;;
71290;SDS011;59073;51.994;4.448;2023-12-22T01:21:46;5.82;;;3.64;;
71290;SDS011;59073;51.994;4.448;2023-12-22T01:24:11;5.84;;;3.65;;
71290;SDS011;59073;51.994;4.448;2023-12-22T01:26:37;6.52;;;4.04;;
71290;SDS011;59073;51.994;4.448;2023-12-22T01:29:02;6.47;;;4.00;;
71290;SDS011;59073;51.994;4.448;2023-12-22T01:31:28;7.91;;;4.82;;
71290;SDS011;59073;51.994;4.448;2023-12-22T01:33:53;7.64;;;4.67;;
71290;SDS011;59073;51.994;4.448;2023-12-22T01:36:19;7.60;;;4.63;;
71290;SDS011;59073;51.994;4.448;2023-12-22T01:38:44;7.15;;;4.37;;
71290;SDS011;59073;51.994;4.448;2023-12-22T01:41:09;8.55;;;5.16;;
71290;SDS011;59073;51.994;4.448;2023-12-22T01:43:35;7.84;;;4.71;;
71290;SDS011;59073;51.994;4.448;2023-12-22T01:46:00;8.09;;;4.94;;
71290;SDS011;59073;51.994;4.448;2023-12-22T01:48:27;7.63;;;4.71;;
71290;SDS011;59073;51.994;4.448;2023-12-22T01:50:55;7.73;;;4.75;;
71290;SDS011;59073;51.994;4.448;2023-12-22T01:53:24;8.90;;;5.43;;
71290;SDS011;59073;51.994;4.448;2023-12-22T01:55:51;7.95;;;4.88;;
71290;SDS011;59073;51.994;4.448;2023-12-22T01:58:19;8.09;;;5.03;;
71290;SDS011;59073;51.994;4.448;2023-12-22T02:00:46;7.94;;;4.91;;
71290;SDS011;59073;51.994;4.448;2023-12-22T02:03:12;8.03;;;4.94;;
71290;SDS011;59073;51.994;4.448;2023-12-22T02:05:40;7.66;;;4.72;;
71290;SDS011;59073;51.994;4.448;2023-12-22T02:08:06;7.29;;;4.52;;
71290;SDS011;59073;51.994;4.448;2023-12-22T02:10:32;6.47;;;4.10;;
71290;SDS011;59073;51.994;4.448;2023-12-22T02:12:57;5.48;;;3.52;;
71290;SDS011;59073;51.994;4.448;2023-12-22T02:15:23;5.46;;;3.49;;
71290;SDS011;59073;51.994;4.448;2023-12-22T02:17:53;6.32;;;4.02;;
71290;SDS011;59073;51.994;4.448;2023-12-22T02:20:24;5.54;;;3.46;;
71290;SDS011;59073;51.994;4.448;2023-12-22T02:22:52;5.07;;;3.19;;
71290;SDS011;59073;51.994;4.448;2023-12-22T02:25:18;5.74;;;3.59;;
71290;SDS011;59073;51.994;4.448;2023-12-22T02:27:45;6.54;;;4.12;;
71290;SDS011;59073;51.994;4.448;2023-12-22T02:30:15;6.02;;;3.76;;
71290;SDS011;59073;51.994;4.448;2023-12-22T02:32:49;6.23;;;3.86;;
71290;SDS011;59073;51.994;4.448;2023-12-22T02:35:19;6.45;;;3.97;;
71290;SDS011;59073;51.994;4.448;2023-12-22T02:37:46;6.40;;;3.96;;
71290;SDS011;59073;51.994;4.448;2023-12-22T02:40:13;6.01;;;3.77;;
71290;SDS011;59073;51.994;4.448;2023-12-22T02:42:39;5.59;;;3.53;;
71290;SDS011;59073;51.994;4.448;2023-12-22T02:45:05;5.81;;;3.67;;
71290;SDS011;59073;51.994;4.448;2023-12-22T02:47:37;6.65;;;4.15;;
71290;SDS011;59073;51.994;4.448;2023-12-22T02:50:03;5.46;;;3.38;;
71290;SDS011;59073;51.994;4.448;2023-12-22T02:52:28;6.61;;;4.03;;
71290;SDS011;59073;51.994;4.448;2023-12-22T02:54:54;7.49;;;4.49;;
71290;SDS011;59073;51.994;4.448;2023-12-22T02:57:19;6.39;;;3.85;;
71290;SDS011;59073;51.994;4.448;2023-12-22T02:59:45;6.75;;;4.12;;
71290;SDS011;59073;51.994;4.448;2023-12-22T03:02:10;6.87;;;4.19;;
71290;SDS011;59073;51.994;4.448;2023-12-22T03:04:35;6.50;;;3.91;;
71290;SDS011;59073;51.994;4.448;2023-12-22T03:07:01;7.20;;;4.29;;
71290;SDS011;59073;51.994;4.448;2023-12-22T03:09:26;8.55;;;5.07;;
71290;SDS011;59073;51.994;4.448;2023-12-22T03:11:52;8.04;;;4.77;;
71290;SDS011;59073;51.994;4.448;2023-12-22T03:14:19;8.52;;;5.05;;
71290;SDS011;59073;51.994;4.448;2023-12-22T03:16:45;7.82;;;4.69;;
71290;SDS011;59073;51.994;4.448;2023-12-22T03:19:10;6.78;;;4.13;;
71290;SDS011;59073;51.994;4.448;2023-12-22T03:21:36;7.30;;;4.47;;
71290;SDS011;59073;51.994;4.448;2023-12-22T03:24:01;5.96;;;3.69;;
71290;SDS011;59073;51.994;4.448;2023-12-22T03:26:27;6.78;;;4.19;;
71290;SDS011;59073;51.994;4.448;2023-12-22T03:28:53;8.04;;;4.96;;
71290;SDS011;59073;51.994;4.448;2023-12-22T03:31:19;7.18;;;4.42;;
71290;SDS011;59073;51.994;4.448;2023-12-22T03:33:44;6.92;;;4.19;;
71290;SDS011;59073;51.994;4.448;2023-12-22T03:36:09;7.14;;;4.36;;
71290;SDS011;59073;51.994;4.448;2023-12-22T03:38:35;6.97;;;4.29;;
71290;SDS011;59073;51.994;4.448;2023-12-22T03:41:00;7.24;;;4.43;;
71290;SDS011;59073;51.994;4.448;2023-12-22T03:43:26;7.08;;;4.30;;
71290;SDS011;59073;51.994;4.448;2023-12-22T03:45:51;6.97;;;4.17;;
71290;SDS011;59073;51.994;4.448;2023-12-22T03:48:17;6.92;;;4.10;;
71290;SDS011;59073;51.994;4.448;2023-12-22T03:50:42;7.03;;;4.19;;
71290;SDS011;59073;51.994;4.448;2023-12-22T03:53:08;7.47;;;4.45;;
71290;SDS011;59073;51.994;4.448;2023-12-22T03:55:34;7.13;;;4.24;;
71290;SDS011;59073;51.994;4.448;2023-12-22T03:57:59;6.87;;;4.08;;
71290;SDS011;59073;51.994;4.448;2023-12-22T04:00:25;6.86;;;4.05;;
71290;SDS011;59073;51.994;4.448;2023-12-22T04:02:50;5.94;;;3.61;;
71290;SDS011;59073;51.994;4.448;2023-12-22T04:05:15;6.56;;;3.99;;
71290;SDS011;59073;51.994;4.448;2023-12-22T04:07:41;5.86;;;3.56;;
71290;SDS011;59073;51.994;4.448;2023-12-22T04:10:06;5.94;;;3.61;;
71290;SDS011;59073;51.994;4.448;2023-12-22T04:12:32;6.27;;;3.82;;
71290;SDS011;59073;51.994;4.448;2023-12-22T04:14:57;7.08;;;4.35;;
71290;SDS011;59073;51.994;4.448;2023-12-22T04:17:23;4.68;;;2.96;;
71290;SDS011;59073;51.994;4.448;2023-12-22T04:19:48;6.38;;;3.94;;
71290;SDS011;59073;51.994;4.448;2023-12-22T04:22:14;5.60;;;3.44;;
71290;SDS011;59073;51.994;4.448;2023-12-22T04:24:39;6.57;;;4.05;;
71290;SDS011;59073;51.994;4.448;2023-12-22T04:27:05;6.11;;;3.71;;
71290;SDS011;59073;51.994;4.448;2023-12-22T04:29:30;6.23;;;3.77;;
71290;SDS011;59073;51.994;4.448;2023-12-22T04:31:56;7.00;;;4.24;;
71290;SDS011;59073;51.994;4.448;2023-12-22T04:34:21;7.13;;;4.32;;
71290;SDS011;59073;51.994;4.448;2023-12-22T04:36:46;5.97;;;3.60;;
71290;SDS011;59073;51.994;4.448;2023-12-22T04:39:12;6.32;;;3.81;;
71290;SDS011;59073;51.994;4.448;2023-12-22T04:41:37;6.42;;;3.88;;
71290;SDS011;59073;51.994;4.448;2023-12-22T04:44:03;7.19;;;4.37;;
71290;SDS011;59073;51.994;4.448;2023-12-22T04:46:29;5.88;;;3.58;;
71290;SDS011;59073;51.994;4.448;2023-12-22T04:48:55;6.84;;;4.19;;
71290;SDS011;59073;51.994;4.448;2023-12-22T04:51:20;6.65;;;4.06;;
71290;SDS011;59073;51.994;4.448;2023-12-22T04:53:46;7.65;;;4.62;;
71290;SDS011;59073;51.994;4.448;2023-12-22T04:56:11;7.28;;;4.37;;
71290;SDS011;59073;51.994;4.448;2023-12-22T04:58:37;6.96;;;4.21;;
71290;SDS011;59073;51.994;4.448;2023-12-22T05:01:03;6.30;;;3.83;;
71290;SDS011;59073;51.994;4.448;2023-12-22T05:03:28;7.26;;;4.40;;
71290;SDS011;59073;51.994;4.448;2023-12-22T05:05:53;7.37;;;4.45;;
71290;SDS011;59073;51.994;4.448;2023-12-22T05:08:19;6.40;;;3.87;;
71290;SDS011;59073;51.994;4.448;2023-12-22T05:10:44;7.06;;;4.30;;
71290;SDS011;59073;51.994;4.448;2023-12-22T05:13:10;7.88;;;4.77;;
71290;SDS011;59073;51.994;4.448;2023-12-22T05:15:35;7.30;;;4.43;;
71290;SDS011;59073;51.994;4.448;2023-12-22T05:18:01;8.08;;;4.87;;
71290;SDS011;59073;51.994;4.448;2023-12-22T05:20:26;8.80;;;5.40;;
71290;SDS011;59073;51.994;4.448;2023-12-22T05:22:52;8.92;;;5.47;;
71290;SDS011;59073;51.994;4.448;2023-12-22T05:25:17;9.63;;;5.90;;
71290;SDS011;59073;51.994;4.448;2023-12-22T05:27:43;10.31;;;6.15;;
71290;SDS011;59073;51.994;4.448;2023-12-22T05:30:09;11.10;;;6.65;;
71290;SDS011;59073;51.994;4.448;2023-12-22T05:32:34;11.41;;;6.84;;
71290;SDS011;59073;51.994;4.448;2023-12-22T05:35:00;11.95;;;7.28;;
71290;SDS011;59073;51.994;4.448;2023-12-22T05:37:25;10.97;;;6.77;;
71290;SDS011;59073;51.994;4.448;2023-12-22T05:39:51;10.97;;;6.78;;
71290;SDS011;59073;51.994;4.448;2023-12-22T05:42:16;10.19;;;6.42;;
71290;SDS011;59073;51.994;4.448;2023-12-22T05:44:42;11.46;;;7.17;;
71290;SDS011;59073;51.994;4.448;2023-12-22T05:47:07;11.91;;;7.36;;
71290;SDS011;59073;51.994;4.448;2023-12-22T05:49:33;11.91;;;7.31;;
71290;SDS011;59073;51.994;4.448;2023-12-22T05:51:59;12.01;;;7.38;;
71290;SDS011;59073;51.994;4.448;2023-12-22T05:54:24;13.39;;;8.23;;
71290;SDS011;59073;51.994;4.448;2023-12-22T05:56:50;14.26;;;8.73;;
71290;SDS011;59073;51.994;4.448;2023-12-22T05:59:17;14.39;;;8.76;;
71290;SDS011;59073;51.994;4.448;2023-12-22T06:01:42;12.94;;;7.91;;
71290;SDS011;59073;51.994;4.448;2023-12-22T06:04:08;11.77;;;7.19;;
71290;SDS011;59073;51.994;4.448;2023-12-22T06:06:34;12.02;;;7.49;;
71290;SDS011;59073;51.994;4.448;2023-12-22T06:09:01;12.51;;;7.77;;
71290;SDS011;59073;51.994;4.448;2023-12-22T06:11:26;14.59;;;8.98;;
71290;SDS011;59073;51.994;4.448;2023-12-22T06:13:51;13.56;;;8.26;;
71290;SDS011;59073;51.994;4.448;2023-12-22T06:16:17;14.36;;;8.73;;
71290;SDS011;59073;51.994;4.448;2023-12-22T06:18:43;14.90;;;8.97;;
71290;SDS011;59073;51.994;4.448;2023-12-22T06:21:09;12.01;;;7.41;;
71290;SDS011;59073;51.994;4.448;2023-12-22T06:23:35;12.95;;;7.89;;
71290;SDS011;59073;51.994;4.448;2023-12-22T06:26:01;14.33;;;8.68;;
71290;SDS011;59073;51.994;4.448;2023-12-22T06:28:32;13.08;;;7.97;;
71290;SDS011;59073;51.994;4.448;2023-12-22T06:30:58;12.66;;;7.80;;
71290;SDS011;59073;51.994;4.448;2023-12-22T06:33:23;11.97;;;7.53;;
71290;SDS011;59073;51.994;4.448;2023-12-22T06:35:49;10.12;;;6.54;;
71290;SDS011;59073;51.994;4.448;2023-12-22T06:38:19;10.82;;;6.94;;
71290;SDS011;59073;51.994;4.448;2023-12-22T06:40:44;11.10;;;6.99;;
71290;SDS011;59073;51.994;4.448;2023-12-22T06:43:12;11.72;;;7.29;;
71290;SDS011;59073;51.994;4.448;2023-12-22T06:45:38;11.11;;;6.87;;
71290;SDS011;59073;51.994;4.448;2023-12-22T06:48:05;12.69;;;7.76;;
71290;SDS011;59073;51.994;4.448;2023-12-22T06:50:31;11.05;;;6.82;;
71290;SDS011;59073;51.994;4.448;2023-12-22T06:52:57;10.11;;;6.30;;
71290;SDS011;59073;51.994;4.448;2023-12-22T06:55:23;12.05;;;7.43;;
71290;SDS011;59073;51.994;4.448;2023-12-22T06:57:48;11.17;;;6.87;;
71290;SDS011;59073;51.994;4.448;2023-12-22T07:00:14;10.59;;;6.45;;
71290;SDS011;59073;51.994;4.448;2023-12-22T07:02:40;12.11;;;7.36;;
71290;SDS011;59073;51.994;4.448;2023-12-22T07:07:35;11.14;;;6.86;;
71290;SDS011;59073;51.994;4.448;2023-12-22T07:10:01;10.27;;;6.31;;
71290;SDS011;59073;51.994;4.448;2023-12-22T07:12:26;11.21;;;6.89;;
71290;SDS011;59073;51.994;4.448;2023-12-22T07:14:52;10.43;;;6.35;;
71290;SDS011;59073;51.994;4.448;2023-12-22T07:17:18;9.77;;;5.89;;
71290;SDS011;59073;51.994;4.448;2023-12-22T07:19:43;9.63;;;5.85;;
71290;SDS011;59073;51.994;4.448;2023-12-22T07:22:09;10.06;;;6.27;;
71290;SDS011;59073;51.994;4.448;2023-12-22T07:24:34;8.86;;;5.63;;
71290;SDS011;59073;51.994;4.448;2023-12-22T07:27:00;7.90;;;5.16;;
71290;SDS011;59073;51.994;4.448;2023-12-22T07:29:25;7.15;;;4.66;;
71290;SDS011;59073;51.994;4.448;2023-12-22T07:31:51;6.98;;;4.44;;
71290;SDS011;59073;51.994;4.448;2023-12-22T07:34:16;7.57;;;4.74;;
71290;SDS011;59073;51.994;4.448;2023-12-22T07:36:42;8.43;;;5.38;;
71290;SDS011;59073;51.994;4.448;2023-12-22T07:39:08;8.24;;;5.32;;
71290;SDS011;59073;51.994;4.448;2023-12-22T07:41:34;6.73;;;4.33;;
71290;SDS011;59073;51.994;4.448;2023-12-22T07:44:00;7.20;;;4.66;;
71290;SDS011;59073;51.994;4.448;2023-12-22T07:46:26;8.60;;;5.44;;
71290;SDS011;59073;51.994;4.448;2023-12-22T07:48:53;8.10;;;5.06;;
71290;SDS011;59073;51.994;4.448;2023-12-22T07:51:19;7.67;;;4.76;;
71290;SDS011;59073;51.994;4.448;2023-12-22T07:53:45;6.63;;;4.15;;
71290;SDS011;59073;51.994;4.448;2023-12-22T07:56:11;6.45;;;4.13;;
71290;SDS011;59073;51.994;4.448;2023-12-22T07:58:37;6.53;;;4.18;;
71290;SDS011;59073;51.994;4.448;2023-12-22T08:01:03;7.05;;;4.52;;
71290;SDS011;59073;51.994;4.448;2023-12-22T08:03:30;6.88;;;4.35;;
71290;SDS011;59073;51.994;4.448;2023-12-22T08:05:56;5.22;;;3.30;;
71290;SDS011;59073;51.994;4.448;2023-12-22T08:08:21;5.58;;;3.53;;
71290;SDS011;59073;51.994;4.448;2023-12-22T08:10:47;6.17;;;3.88;;
71290;SDS011;59073;51.994;4.448;2023-12-22T08:13:13;6.58;;;4.09;;
71290;SDS011;59073;51.994;4.448;2023-12-22T08:15:38;5.48;;;3.44;;
71290;SDS011;59073;51.994;4.448;2023-12-22T08:18:04;6.95;;;4.30;;
71290;SDS011;59073;51.994;4.448;2023-12-22T08:20:30;6.16;;;3.81;;
71290;SDS011;59073;51.994;4.448;2023-12-22T08:22:55;5.05;;;3.16;;
71290;SDS011;59073;51.994;4.448;2023-12-22T08:25:21;5.58;;;3.53;;
71290;SDS011;59073;51.994;4.448;2023-12-22T08:27:46;4.28;;;2.73;;
71290;SDS011;59073;51.994;4.448;2023-12-22T08:30:12;4.38;;;2.80;;
71290;SDS011;59073;51.994;4.448;2023-12-22T08:32:38;4.30;;;2.77;;
71290;SDS011;59073;51.994;4.448;2023-12-22T08:35:04;4.13;;;2.67;;
71290;SDS011;59073;51.994;4.448;2023-12-22T08:37:30;3.97;;;2.55;;
71290;SDS011;59073;51.994;4.448;2023-12-22T08:39:56;4.02;;;2.53;;
71290;SDS011;59073;51.994;4.448;2023-12-22T08:42:21;4.50;;;2.80;;
71290;SDS011;59073;51.994;4.448;2023-12-22T08:44:47;4.97;;;3.10;;
71290;SDS011;59073;51.994;4.448;2023-12-22T08:47:13;4.17;;;2.62;;
71290;SDS011;59073;51.994;4.448;2023-12-22T08:49:38;4.03;;;2.52;;
71290;SDS011;59073;51.994;4.448;2023-12-22T08:52:04;4.02;;;2.49;;
71290;SDS011;59073;51.994;4.448;2023-12-22T08:54:30;3.92;;;2.41;;
71290;SDS011;59073;51.994;4.448;2023-12-22T08:56:55;3.80;;;2.32;;
71290;SDS011;59073;51.994;4.448;2023-12-22T08:59:21;4.03;;;2.47;;
71290;SDS011;59073;51.994;4.448;2023-12-22T09:01:47;4.99;;;3.04;;
71290;SDS011;59073;51.994;4.448;2023-12-22T09:04:12;4.48;;;2.70;;
71290;SDS011;59073;51.994;4.448;2023-12-22T09:06:38;5.06;;;3.07;;
71290;SDS011;59073;51.994;4.448;2023-12-22T09:09:04;4.99;;;3.05;;
71290;SDS011;59073;51.994;4.448;2023-12-22T09:11:31;4.30;;;2.67;;
71290;SDS011;59073;51.994;4.448;2023-12-22T09:13:57;4.20;;;2.63;;
71290;SDS011;59073;51.994;4.448;2023-12-22T09:16:22;3.81;;;2.38;;
71290;SDS011;59073;51.994;4.448;2023-12-22T09:18:48;3.74;;;2.34;;
71290;SDS011;59073;51.994;4.448;2023-12-22T09:21:16;4.24;;;2.65;;
71290;SDS011;59073;51.994;4.448;2023-12-22T09:23:43;4.07;;;2.57;;
71290;SDS011;59073;51.994;4.448;2023-12-22T09:26:11;4.10;;;2.58;;
71290;SDS011;59073;51.994;4.448;2023-12-22T09:28:40;4.07;;;2.56;;
71290;SDS011;59073;51.994;4.448;2023-12-22T09:31:06;3.45;;;2.21;;
71290;SDS011;59073;51.994;4.448;2023-12-22T09:33:35;3.51;;;2.29;;
71290;SDS011;59073;51.994;4.448;2023-12-22T09:36:01;3.67;;;2.43;;
71290;SDS011;59073;51.994;4.448;2023-12-22T09:38:26;2.84;;;1.95;;
71290;SDS011;59073;51.994;4.448;2023-12-22T09:40:53;2.75;;;1.91;;
71290;SDS011;59073;51.994;4.448;2023-12-22T09:43:19;3.61;;;2.48;;
71290;SDS011;59073;51.994;4.448;2023-12-22T09:45:45;3.00;;;2.11;;
71290;SDS011;59073;51.994;4.448;2023-12-22T09:48:12;3.13;;;2.21;;
71290;SDS011;59073;51.994;4.448;2023-12-22T09:50:45;2.90;;;2.04;;
71290;SDS011;59073;51.994;4.448;2023-12-22T09:53:12;3.24;;;2.27;;
71290;SDS011;59073;51.994;4.448;2023-12-22T09:55:42;2.59;;;1.83;;
71290;SDS011;59073;51.994;4.448;2023-12-22T09:58:11;2.91;;;2.08;;
71290;SDS011;59073;51.994;4.448;2023-12-22T10:00:39;2.48;;;1.76;;
71290;SDS011;59073;51.994;4.448;2023-12-22T10:03:06;2.69;;;1.88;;
71290;SDS011;59073;51.994;4.448;2023-12-22T10:05:33;2.82;;;1.99;;
71290;SDS011;59073;51.994;4.448;2023-12-22T10:07:58;2.76;;;1.92;;
71290;SDS011;59073;51.994;4.448;2023-12-22T10:10:26;2.50;;;1.73;;
71290;SDS011;59073;51.994;4.448;2023-12-22T10:12:56;3.33;;;2.34;;
71290;SDS011;59073;51.994;4.448;2023-12-22T10:15:24;2.65;;;1.87;;
71290;SDS011;59073;51.994;4.448;2023-12-22T10:17:51;2.90;;;2.07;;
71290;SDS011;59073;51.994;4.448;2023-12-22T10:20:17;3.35;;;2.39;;
71290;SDS011;59073;51.994;4.448;2023-12-22T10:22:43;2.93;;;2.06;;
71290;SDS011;59073;51.994;4.448;2023-12-22T10:25:08;2.62;;;1.84;;
71290;SDS011;59073;51.994;4.448;2023-12-22T10:27:35;2.87;;;2.01;;
71290;SDS011;59073;51.994;4.448;2023-12-22T10:30:02;3.53;;;2.50;;
71290;SDS011;59073;51.994;4.448;2023-12-22T10:32:28;3.47;;;2.47;;
71290;SDS011;59073;51.994;4.448;2023-12-22T10:34:55;3.36;;;2.37;;
71290;SDS011;59073;51.994;4.448;2023-12-22T10:37:24;3.02;;;2.12;;
71290;SDS011;59073;51.994;4.448;2023-12-22T10:39:53;2.82;;;1.99;;
71290;SDS011;59073;51.994;4.448;2023-12-22T10:42:19;2.71;;;1.93;;
71290;SDS011;59073;51.994;4.448;2023-12-22T10:44:45;2.67;;;1.89;;
71290;SDS011;59073;51.994;4.448;2023-12-22T10:47:11;3.22;;;2.22;;
71290;SDS011;59073;51.994;4.448;2023-12-22T10:49:37;2.93;;;1.97;;
71290;SDS011;59073;51.994;4.448;2023-12-22T10:52:03;3.74;;;2.48;;
71290;SDS011;59073;51.994;4.448;2023-12-22T10:54:28;3.53;;;2.32;;
71290;SDS011;59073;51.994;4.448;2023-12-22T10:56:58;3.29;;;2.17;;
71290;SDS011;59073;51.994;4.448;2023-12-22T10:59:28;4.34;;;2.90;;
71290;SDS011;59073;51.994;4.448;2023-12-22T11:01:56;4.56;;;3.00;;
71290;SDS011;59073;51.994;4.448;2023-12-22T11:04:25;3.76;;;2.47;;
71290;SDS011;59073;51.994;4.448;2023-12-22T11:06:57;3.36;;;2.22;;
71290;SDS011;59073;51.994;4.448;2023-12-22T11:09:24;4.33;;;2.82;;
71290;SDS011;59073;51.994;4.448;2023-12-22T11:11:54;4.50;;;2.94;;
71290;SDS011;59073;51.994;4.448;2023-12-22T11:14:22;4.41;;;2.86;;
71290;SDS011;59073;51.994;4.448;2023-12-22T11:16:50;4.87;;;3.16;;
71290;SDS011;59073;51.994;4.448;2023-12-22T11:19:18;3.68;;;2.42;;
71290;SDS011;59073;51.994;4.448;2023-12-22T11:21:46;4.45;;;2.95;;
71290;SDS011;59073;51.994;4.448;2023-12-22T11:24:13;4.17;;;2.78;;
71290;SDS011;59073;51.994;4.448;2023-12-22T11:26:41;4.94;;;3.30;;
71290;SDS011;59073;51.994;4.448;2023-12-22T11:29:10;4.48;;;2.99;;
71290;SDS011;59073;51.994;4.448;2023-12-22T11:31:37;3.84;;;2.57;;
71290;SDS011;59073;51.994;4.448;2023-12-22T11:34:05;3.62;;;2.44;;
71290;SDS011;59073;51.994;4.448;2023-12-22T11:36:33;3.90;;;2.65;;
71290;SDS011;59073;51.994;4.448;2023-12-22T11:39:00;3.41;;;2.29;;
71290;SDS011;59073;51.994;4.448;2023-12-22T11:41:27;3.78;;;2.50;;
71290;SDS011;59073;51.994;4.448;2023-12-22T11:43:57;4.13;;;2.70;;
71290;SDS011;59073;51.994;4.448;2023-12-22T11:46:24;3.77;;;2.49;;
71290;SDS011;59073;51.994;4.448;2023-12-22T11:48:51;3.77;;;2.51;;
71290;SDS011;59073;51.994;4.448;2023-12-22T11:51:18;3.63;;;2.44;;
71290;SDS011;59073;51.994;4.448;2023-12-22T11:53:44;4.28;;;2.87;;
71290;SDS011;59073;51.994;4.448;2023-12-22T11:56:11;4.11;;;2.68;;
71290;SDS011;59073;51.994;4.448;2023-12-22T11:58:47;3.60;;;2.30;;
71290;SDS011;59073;51.994;4.448;2023-12-22T12:01:23;5.09;;;3.24;;
71290;SDS011;59073;51.994;4.448;2023-12-22T12:08:54;4.29;;;2.68;;
71290;SDS011;59073;51.994;4.448;2023-12-22T12:11:21;4.20;;;2.63;;
71290;SDS011;59073;51.994;4.448;2023-12-22T12:13:47;4.14;;;2.61;;
71290;SDS011;59073;51.994;4.448;2023-12-22T12:16:18;4.52;;;2.86;;
71290;SDS011;59073;51.994;4.448;2023-12-22T12:18:46;4.41;;;2.76;;
71290;SDS011;59073;51.994;4.448;2023-12-22T12:21:12;4.90;;;3.04;;
71290;SDS011;59073;51.994;4.448;2023-12-22T12:23:40;4.75;;;2.94;;
71290;SDS011;59073;51.994;4.448;2023-12-22T12:26:06;5.68;;;3.48;;
71290;SDS011;59073;51.994;4.448;2023-12-22T12:28:33;5.17;;;3.15;;
71290;SDS011;59073;51.994;4.448;2023-12-22T12:31:02;4.43;;;2.71;;
71290;SDS011;59073;51.994;4.448;2023-12-22T12:33:30;4.38;;;2.74;;
71290;SDS011;59073;51.994;4.448;2023-12-22T12:35:57;4.97;;;3.11;;
71290;SDS011;59073;51.994;4.448;2023-12-22T12:41:03;3.65;;;2.36;;
71290;SDS011;59073;51.994;4.448;2023-12-22T12:43:30;3.43;;;2.23;;
71290;SDS011;59073;51.994;4.448;2023-12-22T12:46:03;4.39;;;2.85;;
71290;SDS011;59073;51.994;4.448;2023-12-22T12:48:31;3.58;;;2.33;;
71290;SDS011;59073;51.994;4.448;2023-12-22T12:51:05;3.75;;;2.45;;
71290;SDS011;59073;51.994;4.448;2023-12-22T12:53:32;4.41;;;2.87;;
71290;SDS011;59073;51.994;4.448;2023-12-22T12:55:59;4.51;;;2.86;;
71290;SDS011;59073;51.994;4.448;2023-12-22T12:58:28;5.03;;;3.18;;
71290;SDS011;59073;51.994;4.448;2023-12-22T13:01:06;5.63;;;3.52;;
71290;SDS011;59073;51.994;4.448;2023-12-22T13:03:33;5.75;;;3.54;;
71290;SDS011;59073;51.994;4.448;2023-12-22T13:06:05;4.82;;;3.01;;
71290;SDS011;59073;51.994;4.448;2023-12-22T13:08:32;5.59;;;3.49;;
71290;SDS011;59073;51.994;4.448;2023-12-22T13:11:00;5.25;;;3.32;;
71290;SDS011;59073;51.994;4.448;2023-12-22T13:13:26;5.78;;;3.70;;
71290;SDS011;59073;51.994;4.448;2023-12-22T13:15:52;5.25;;;3.35;;
71290;SDS011;59073;51.994;4.448;2023-12-22T13:18:17;5.05;;;3.20;;
71290;SDS011;59073;51.994;4.448;2023-12-22T13:20:43;4.60;;;2.91;;
71290;SDS011;59073;51.994;4.448;2023-12-22T13:23:11;4.46;;;2.85;;
71290;SDS011;59073;51.994;4.448;2023-12-22T13:25:40;5.23;;;3.30;;
71290;SDS011;59073;51.994;4.448;2023-12-22T13:28:05;5.24;;;3.25;;
71290;SDS011;59073;51.994;4.448;2023-12-22T13:30:36;5.45;;;3.32;;
71290;SDS011;59073;51.994;4.448;2023-12-22T13:33:06;5.17;;;3.13;;
71290;SDS011;59073;51.994;4.448;2023-12-22T13:35:33;5.62;;;3.39;;
71290;SDS011;59073;51.994;4.448;2023-12-22T13:38:01;5.96;;;3.57;;
71290;SDS011;59073;51.994;4.448;2023-12-22T13:40:31;5.69;;;3.42;;
71290;SDS011;59073;51.994;4.448;2023-12-22T13:42:57;5.45;;;3.35;;
71290;SDS011;59073;51.994;4.448;2023-12-22T13:45:26;5.35;;;3.35;;
71290;SDS011;59073;51.994;4.448;2023-12-22T13:47:52;5.59;;;3.52;;
71290;SDS011;59073;51.994;4.448;2023-12-22T13:50:19;5.00;;;3.15;;
71290;SDS011;59073;51.994;4.448;2023-12-22T13:52:48;5.91;;;3.74;;
71290;SDS011;59073;51.994;4.448;2023-12-22T13:55:16;5.13;;;3.25;;
71290;SDS011;59073;51.994;4.448;2023-12-22T13:57:43;5.73;;;3.62;;
71290;SDS011;59073;51.994;4.448;2023-12-22T14:02:43;5.77;;;3.64;;
71290;SDS011;59073;51.994;4.448;2023-12-22T14:05:09;5.83;;;3.65;;
71290;SDS011;59073;51.994;4.448;2023-12-22T14:07:35;6.73;;;4.13;;
71290;SDS011;59073;51.994;4.448;2023-12-22T14:10:04;6.19;;;3.80;;
71290;SDS011;59073;51.994;4.448;2023-12-22T14:12:30;5.80;;;3.60;;
71290;SDS011;59073;51.994;4.448;2023-12-22T14:14:55;6.14;;;3.83;;
71290;SDS011;59073;51.994;4.448;2023-12-22T14:17:21;6.58;;;4.10;;
71290;SDS011;59073;51.994;4.448;2023-12-22T14:19:47;5.64;;;3.59;;
71290;SDS011;59073;51.994;4.448;2023-12-22T14:22:14;4.93;;;3.15;;
71290;SDS011;59073;51.994;4.448;2023-12-22T14:24:40;6.10;;;3.89;;
71290;SDS011;59073;51.994;4.448;2023-12-22T14:27:06;5.25;;;3.33;;
71290;SDS011;59073;51.994;4.448;2023-12-22T14:29:31;5.59;;;3.52;;
71290;SDS011;59073;51.994;4.448;2023-12-22T14:31:58;5.63;;;3.56;;
71290;SDS011;59073;51.994;4.448;2023-12-22T14:34:24;4.87;;;3.10;;
71290;SDS011;59073;51.994;4.448;2023-12-22T14:36:49;5.27;;;3.37;;
71290;SDS011;59073;51.994;4.448;2023-12-22T14:39:15;5.28;;;3.34;;
71290;SDS011;59073;51.994;4.448;2023-12-22T14:41:41;6.32;;;3.93;;
71290;SDS011;59073;51.994;4.448;2023-12-22T14:44:07;5.14;;;3.26;;
71290;SDS011;59073;51.994;4.448;2023-12-22T14:46:36;5.35;;;3.45;;
71290;SDS011;59073;51.994;4.448;2023-12-22T14:49:03;5.71;;;3.62;;
71290;SDS011;59073;51.994;4.448;2023-12-22T14:51:28;5.69;;;3.53;;
71290;SDS011;59073;51.994;4.448;2023-12-22T14:53:54;5.17;;;3.28;;